createdAt,value
2018-08-22T00:01:34.851Z,53.90
2018-08-22T00:04:05.254Z,53.68
2018-08-22T00:06:35.603Z,54.32
2018-08-22T00:09:08.944Z,53.55
2018-08-22T00:11:39.282Z,53.81
2018-08-22T00:14:09.841Z,54.29
2018-08-22T00:16:40.331Z,54.01
2018-08-22T00:19:10.571Z,53.72
2018-08-22T00:21:41.040Z,53.76
2018-08-22T00:24:11.443Z,53.54
2018-08-22T00:26:41.836Z,54.04
2018-08-22T00:29:12.099Z,53.62
2018-08-22T00:31:42.421Z,53.47
2018-08-22T00:34:12.751Z,53.62
2018-08-22T00:36:43.002Z,53.97
2018-08-22T00:39:13.275Z,54.05
2018-08-22T00:41:43.759Z,53.77
2018-08-22T00:44:14.087Z,53.91
2018-08-22T00:46:44.371Z,53.68
2018-08-22T00:49:14.713Z,53.86
2018-08-22T00:51:45.076Z,54.11
2018-08-22T00:54:15.486Z,54.34
2018-08-22T00:56:45.847Z,54.00
2018-08-22T00:59:16.256Z,54.10
2018-08-22T01:01:46.610Z,54.36
2018-08-22T01:04:17.037Z,54.38
2018-08-22T01:06:47.441Z,54.49
2018-08-22T01:09:17.783Z,54.13
2018-08-22T01:11:48.172Z,55.04
2018-08-22T01:14:18.550Z,54.98
2018-08-22T01:16:48.901Z,54.26
2018-08-22T01:19:20.059Z,54.91
2018-08-22T01:21:50.401Z,54.29
2018-08-22T01:24:20.777Z,54.73
2018-08-22T01:26:51.089Z,54.73
2018-08-22T01:29:21.816Z,54.13
2018-08-22T01:31:52.326Z,54.39
2018-08-22T01:34:22.721Z,55.01
2018-08-22T01:36:52.996Z,54.39
2018-08-22T01:39:23.304Z,54.41
2018-08-22T01:41:53.583Z,54.38
2018-08-22T01:44:23.978Z,54.29
2018-08-22T01:46:54.329Z,54.96
2018-08-22T01:49:24.720Z,54.81
2018-08-22T01:51:55.160Z,55.20
2018-08-22T01:54:25.648Z,54.91
2018-08-22T01:56:56.175Z,54.48
2018-08-22T01:59:26.437Z,54.64
2018-08-22T02:01:56.843Z,55.35
2018-08-22T02:04:27.432Z,55.17
2018-08-22T02:06:57.988Z,55.41
2018-08-22T02:09:28.319Z,55.29
2018-08-22T02:11:58.837Z,55.83
2018-08-22T02:14:29.260Z,55.73
2018-08-22T02:16:59.994Z,56.25
2018-08-22T02:19:30.327Z,56.37
2018-08-22T02:22:00.663Z,54.96
2018-08-22T02:24:31.003Z,55.83
2018-08-22T02:27:01.425Z,55.32
2018-08-22T02:29:31.771Z,55.60
2018-08-22T02:32:02.043Z,55.97
2018-08-22T02:34:32.517Z,55.74
2018-08-22T02:37:02.959Z,56.14
2018-08-22T02:39:33.248Z,56.57
2018-08-22T02:42:03.705Z,55.71
2018-08-22T02:44:34.033Z,56.72
2018-08-22T02:47:04.368Z,56.65
2018-08-22T02:49:34.567Z,56.75
2018-08-22T02:52:05.035Z,56.37
2018-08-22T02:54:35.487Z,56.26
2018-08-22T02:57:06.071Z,56.14
2018-08-22T02:59:36.429Z,56.35
2018-08-22T03:02:06.724Z,56.47
2018-08-22T03:04:37.183Z,56.33
2018-08-22T03:07:07.437Z,56.54
2018-08-22T03:09:37.842Z,56.24
2018-08-22T03:12:08.216Z,56.12
2018-08-22T03:14:38.788Z,56.43
2018-08-22T03:17:09.319Z,56.66
2018-08-22T03:19:39.803Z,56.52
2018-08-22T03:22:10.284Z,56.93
2018-08-22T03:24:40.649Z,56.65
2018-08-22T03:27:11.009Z,56.68
2018-08-22T03:29:41.563Z,57.18
2018-08-22T03:32:12.025Z,56.61
2018-08-22T03:34:42.460Z,57.13
2018-08-22T03:37:12.898Z,56.71
2018-08-22T03:39:43.391Z,56.81
2018-08-22T03:42:13.681Z,57.02
2018-08-22T03:44:43.948Z,57.63
2018-08-22T03:47:14.203Z,57.71
2018-08-22T03:49:44.607Z,57.66
2018-08-22T03:52:14.943Z,57.80
2018-08-22T03:54:45.292Z,57.59
2018-08-22T03:57:15.564Z,57.05
2018-08-22T03:59:46.896Z,57.74
2018-08-22T04:02:17.180Z,57.85
2018-08-22T04:04:47.597Z,57.30
2018-08-22T04:07:18.248Z,57.47
2018-08-22T04:09:48.576Z,57.78
2018-08-22T04:12:18.968Z,58.83
2018-08-22T04:14:49.336Z,58.54
2018-08-22T04:17:19.656Z,58.66
2018-08-22T04:19:49.991Z,59.17
2018-08-22T04:22:20.558Z,59.23
2018-08-22T04:24:51.015Z,58.76
2018-08-22T04:27:21.922Z,58.56
2018-08-22T04:29:53.248Z,59.35
2018-08-22T04:32:23.685Z,59.27
2018-08-22T04:34:54.108Z,58.93
2018-08-22T04:37:24.699Z,59.12
2018-08-22T04:39:54.941Z,59.30
2018-08-22T04:42:25.315Z,59.57
2018-08-22T04:44:56.368Z,59.75
2018-08-22T04:47:26.760Z,59.26
2018-08-22T04:49:56.808Z,58.43
2018-08-22T04:52:26.831Z,59.18
2018-08-22T04:54:57.272Z,58.61
2018-08-22T04:57:27.637Z,58.44
2018-08-22T04:59:58.021Z,58.06
2018-08-22T05:02:28.568Z,58.40
2018-08-22T05:04:58.844Z,58.55
2018-08-22T05:07:29.298Z,57.69
2018-08-22T05:09:59.718Z,57.34
2018-08-22T05:12:29.957Z,58.11
2018-08-22T05:15:00.202Z,56.83
2018-08-22T05:17:30.469Z,56.99
2018-08-22T05:20:00.996Z,56.75
2018-08-22T05:22:31.359Z,55.45
2018-08-22T05:25:01.715Z,53.92
2018-08-22T05:27:32.108Z,49.42
2018-08-22T05:30:02.621Z,47.39
2018-08-22T05:32:33.191Z,44.69
2018-08-22T05:35:03.644Z,42.80
2018-08-22T05:37:34.227Z,42.91
2018-08-22T05:40:05.281Z,41.39
2018-08-22T05:42:35.664Z,39.93
2018-08-22T05:45:06.577Z,41.15
2018-08-22T05:47:36.949Z,40.46
2018-08-22T05:50:07.408Z,40.79
2018-08-22T05:52:37.923Z,40.66
2018-08-22T05:55:08.271Z,39.03
2018-08-22T05:57:38.791Z,37.81
2018-08-22T06:00:09.216Z,38.19
2018-08-22T06:02:40.348Z,37.85
2018-08-22T06:05:10.740Z,37.70
2018-08-22T06:07:40.984Z,39.11
2018-08-22T06:10:11.372Z,38.68
2018-08-22T06:12:42.364Z,37.78
2018-08-22T06:15:12.864Z,38.82
2018-08-22T06:17:43.419Z,38.54
2018-08-22T06:20:13.735Z,37.23
2018-08-22T06:22:44.197Z,35.65
2018-08-22T06:25:14.465Z,36.82
2018-08-22T06:27:44.955Z,37.09
2018-08-22T06:30:15.853Z,36.16
2018-08-22T06:32:46.195Z,36.14
2018-08-22T06:35:17.386Z,34.24
2018-08-22T06:37:47.914Z,34.74
2018-08-22T06:40:18.503Z,35.33
2018-08-22T06:42:49.072Z,34.67
2018-08-22T06:45:19.468Z,33.77
2018-08-22T06:47:49.935Z,33.75
2018-08-22T06:50:20.283Z,35.18
2018-08-22T06:52:50.563Z,34.56
2018-08-22T06:55:21.015Z,33.92
2018-08-22T06:57:51.481Z,34.06
2018-08-22T07:00:22.003Z,34.11
2018-08-22T07:02:52.441Z,34.28
2018-08-22T07:05:22.697Z,34.19
2018-08-22T07:07:53.182Z,36.35
2018-08-22T07:10:23.653Z,35.93
2018-08-22T07:12:54.144Z,34.04
2018-08-22T07:15:24.500Z,33.88
2018-08-22T07:17:54.982Z,32.42
2018-08-22T07:20:25.569Z,32.78
2018-08-22T07:22:56.093Z,33.44
2018-08-22T07:25:26.672Z,33.60
2018-08-22T07:27:57.159Z,33.61
2018-08-22T07:30:27.664Z,33.05
2018-08-22T07:32:57.959Z,34.96
2018-08-22T07:35:28.251Z,33.54
2018-08-22T07:37:58.756Z,32.53
2018-08-22T07:40:28.824Z,32.30
2018-08-22T07:42:58.909Z,33.04
2018-08-22T07:45:28.968Z,33.42
2018-08-22T07:47:59.055Z,31.27
2018-08-22T07:50:29.077Z,31.69
2018-08-22T07:53:03.938Z,31.62
2018-08-22T07:55:40.366Z,33.06
2018-08-22T07:58:10.824Z,33.25
2018-08-22T08:00:41.320Z,33.36
2018-08-22T08:03:11.816Z,33.71
2018-08-22T08:05:42.249Z,32.40
2018-08-22T08:08:12.464Z,33.39
2018-08-22T08:10:42.928Z,31.86
2018-08-22T08:13:18.527Z,32.06
2018-08-22T08:15:48.968Z,32.19
2018-08-22T08:18:19.342Z,32.86
2018-08-22T08:20:49.808Z,33.19
2018-08-22T08:23:20.229Z,32.04
2018-08-22T08:25:50.588Z,31.02
2018-08-22T08:31:21.837Z,30.80
2018-08-22T08:33:52.680Z,32.18
2018-08-22T08:36:23.088Z,32.00
2018-08-22T08:38:53.348Z,32.46
2018-08-22T08:41:23.904Z,32.83
2018-08-22T08:43:54.302Z,33.27
2018-08-22T08:46:24.800Z,33.76
2018-08-22T08:48:55.180Z,33.37
2018-08-22T08:51:25.540Z,32.03
2018-08-22T08:53:55.919Z,32.66
2018-08-22T08:56:26.266Z,33.70
2018-08-22T08:58:56.500Z,32.32
2018-08-22T09:01:26.825Z,32.64
2018-08-22T09:03:57.285Z,32.90
2018-08-22T09:06:27.639Z,33.80
2018-08-22T09:08:57.821Z,33.21
2018-08-22T09:11:28.276Z,33.57
2018-08-22T09:13:58.767Z,32.55
2018-08-22T09:16:29.431Z,32.96
2018-08-22T09:18:59.740Z,32.57
2018-08-22T09:21:30.225Z,32.16
2018-08-22T09:24:00.750Z,32.79
2018-08-22T09:26:31.172Z,31.76
2018-08-22T09:29:02.049Z,31.27
2018-08-22T09:31:32.456Z,31.29
2018-08-22T09:34:02.962Z,31.75
2018-08-22T09:36:33.965Z,31.41
2018-08-22T09:39:05.212Z,32.07
2018-08-22T09:41:35.672Z,32.41
2018-08-22T09:44:06.171Z,30.70
2018-08-22T09:46:36.888Z,30.84
2018-08-22T09:49:07.467Z,32.05
2018-08-22T09:51:37.788Z,31.29
2018-08-22T09:54:08.132Z,30.78
2018-08-22T09:56:38.525Z,30.46
2018-08-22T09:59:08.915Z,31.73
2018-08-22T10:01:42.260Z,30.86
2018-08-22T10:04:12.516Z,30.61
2018-08-22T10:06:44.344Z,30.37
2018-08-22T10:09:21.404Z,31.25
2018-08-22T10:11:52.075Z,31.69
2018-08-22T10:14:22.420Z,30.65
2018-08-22T10:16:52.812Z,30.70
2018-08-22T10:19:23.140Z,30.91
2018-08-22T10:21:53.599Z,30.28
2018-08-22T10:24:24.040Z,30.49
2018-08-22T10:26:54.481Z,30.48
2018-08-22T10:29:25.031Z,29.08
2018-08-22T10:31:55.376Z,28.80
2018-08-22T10:34:25.891Z,29.61
2018-08-22T10:36:56.315Z,27.72
2018-08-22T10:39:26.848Z,27.83
2018-08-22T10:41:57.284Z,29.86
2018-08-22T10:44:27.969Z,27.83
2018-08-22T10:46:58.415Z,28.18
2018-08-22T10:49:28.673Z,28.59
2018-08-22T10:51:59.056Z,29.87
2018-08-22T10:54:29.429Z,29.12
2018-08-22T10:56:59.820Z,28.02
2018-08-22T10:59:30.096Z,29.29
2018-08-22T11:02:00.631Z,29.36
2018-08-22T11:04:30.946Z,29.25
2018-08-22T11:07:01.264Z,28.20
2018-08-22T11:09:31.487Z,28.66
2018-08-22T11:12:01.813Z,27.30
2018-08-22T11:14:32.181Z,28.39
2018-08-22T11:17:02.637Z,27.98
2018-08-22T11:19:32.970Z,28.53
2018-08-22T11:22:19.851Z,28.17
2018-08-22T11:25:06.835Z,27.13
2018-08-22T11:27:53.547Z,28.67
2018-08-22T11:30:40.471Z,27.13
2018-08-22T11:33:27.530Z,28.85
2018-08-22T11:35:55.736Z,27.04
2018-08-22T11:38:26.017Z,28.36
2018-08-22T11:40:56.406Z,26.42
2018-08-22T11:43:26.783Z,27.37
2018-08-22T11:45:57.864Z,27.78
2018-08-22T11:48:28.260Z,27.62
2018-08-22T11:50:58.776Z,27.16
2018-08-22T11:53:29.740Z,26.71
2018-08-22T11:56:00.242Z,26.88
2018-08-22T11:58:30.708Z,27.17
2018-08-22T12:01:00.939Z,27.76
2018-08-22T12:03:31.387Z,27.07
2018-08-22T12:06:01.824Z,27.37
2018-08-22T12:08:32.405Z,26.81
2018-08-22T12:11:02.716Z,26.51
2018-08-22T12:13:33.109Z,25.38
2018-08-22T12:16:04.042Z,26.97
2018-08-22T12:18:34.416Z,27.65
2018-08-22T12:21:05.003Z,27.23
2018-08-22T12:23:35.455Z,27.47
2018-08-22T12:26:05.964Z,27.08
2018-08-22T12:28:36.320Z,27.47
2018-08-22T12:31:06.612Z,26.96
2018-08-22T12:33:36.977Z,25.93
2018-08-22T12:36:07.424Z,26.35
2018-08-22T12:38:37.936Z,27.82
2018-08-22T12:41:09.340Z,28.37
2018-08-22T12:43:39.680Z,27.01
2018-08-22T12:46:10.261Z,27.71
2018-08-22T12:48:40.771Z,27.47
2018-08-22T12:51:10.993Z,26.69
2018-08-22T12:53:41.415Z,26.68
2018-08-22T12:56:19.349Z,26.61
2018-08-22T12:58:49.657Z,25.74
2018-08-22T13:01:20.240Z,26.59
2018-08-22T13:03:50.490Z,25.62
2018-08-22T13:06:21.055Z,27.05
2018-08-22T13:08:51.548Z,26.63
2018-08-22T13:11:22.014Z,26.32
2018-08-22T13:13:52.503Z,26.09
2018-08-22T13:16:22.871Z,25.83
2018-08-22T13:18:53.344Z,26.92
2018-08-22T13:21:23.609Z,25.95
2018-08-22T13:23:53.949Z,26.45
2018-08-22T13:26:24.504Z,27.09
2018-08-22T13:28:55.021Z,26.82
2018-08-22T13:31:25.472Z,25.71
2018-08-22T13:33:55.939Z,26.60
2018-08-22T13:36:26.213Z,26.98
2018-08-22T13:38:56.693Z,27.24
2018-08-22T13:41:27.032Z,25.95
2018-08-22T13:43:57.439Z,26.79
2018-08-22T13:46:27.723Z,25.66
2018-08-22T13:48:58.071Z,27.20
2018-08-22T13:51:28.487Z,26.56
2018-08-22T13:53:58.920Z,26.17
2018-08-22T13:56:29.313Z,25.42
2018-08-22T13:58:59.801Z,25.86
2018-08-22T14:01:30.241Z,26.51
2018-08-22T14:04:00.847Z,25.36
2018-08-22T14:06:31.410Z,25.95
2018-08-22T14:09:01.904Z,26.38
2018-08-22T14:11:32.282Z,25.41
2018-08-22T14:14:02.555Z,26.21
2018-08-22T14:16:33.139Z,26.17
2018-08-22T14:19:03.346Z,26.33
2018-08-22T14:21:33.700Z,26.16
2018-08-22T14:24:04.064Z,26.27
2018-08-22T14:26:34.530Z,25.91
2018-08-22T14:29:04.928Z,26.25
2018-08-22T14:31:35.518Z,26.57
2018-08-22T14:34:06.079Z,27.11
2018-08-22T14:36:36.432Z,27.57
2018-08-22T14:39:11.286Z,26.86
2018-08-22T14:41:41.985Z,27.09
2018-08-22T14:44:12.343Z,27.37
2018-08-22T14:46:42.892Z,26.74
2018-08-22T14:49:13.414Z,26.48
2018-08-22T14:51:44.192Z,27.03
2018-08-22T14:54:15.332Z,27.87
2018-08-22T14:56:45.968Z,27.89
2018-08-22T14:59:16.583Z,27.95
2018-08-22T15:01:46.998Z,28.19
2018-08-22T15:04:17.468Z,27.29
2018-08-22T15:06:47.838Z,27.67
2018-08-22T15:09:19.521Z,27.75
2018-08-22T15:11:49.844Z,27.93
2018-08-22T15:14:20.386Z,27.75
2018-08-22T15:16:50.955Z,27.24
2018-08-22T15:19:21.598Z,28.15
2018-08-22T15:21:52.114Z,28.51
2018-08-22T15:24:22.487Z,28.16
2018-08-22T15:26:52.972Z,28.42
2018-08-22T15:29:23.343Z,27.98
2018-08-22T15:31:53.940Z,27.63
2018-08-22T15:34:25.465Z,27.52
2018-08-22T15:36:55.688Z,28.28
2018-08-22T15:39:26.187Z,29.82
2018-08-22T15:41:56.702Z,28.11
2018-08-22T15:44:27.102Z,29.22
2018-08-22T15:46:57.488Z,29.55
2018-08-22T15:49:27.940Z,29.20
2018-08-22T15:51:58.411Z,28.94
2018-08-22T15:54:28.806Z,28.36
2018-08-22T15:56:59.317Z,29.00
2018-08-22T15:59:29.835Z,28.46
2018-08-22T16:02:00.118Z,28.83
2018-08-22T16:04:30.702Z,29.34
2018-08-22T16:07:08.321Z,30.01
2018-08-22T16:09:38.819Z,29.24
2018-08-22T16:12:09.168Z,29.94
2018-08-22T16:14:39.650Z,28.72
2018-08-22T16:17:09.954Z,29.45
2018-08-22T16:19:40.144Z,28.69
2018-08-22T16:22:10.610Z,29.34
2018-08-22T16:24:42.799Z,29.26
2018-08-22T16:27:13.255Z,29.45
2018-08-22T16:29:43.727Z,29.29
2018-08-22T16:32:14.215Z,29.93
2018-08-22T16:34:45.096Z,29.12
2018-08-22T16:37:15.489Z,29.61
2018-08-22T16:39:45.989Z,29.61
2018-08-22T16:42:18.482Z,30.49
2018-08-22T16:44:48.871Z,30.07
2018-08-22T16:47:20.871Z,29.15
2018-08-22T16:49:51.271Z,29.97
2018-08-22T16:52:21.735Z,29.79
2018-08-22T16:55:06.053Z,29.61
2018-08-22T16:57:36.513Z,29.54
2018-08-22T17:00:07.276Z,29.78
2018-08-22T17:02:37.574Z,30.46
2018-08-22T17:05:08.129Z,30.37
2018-08-22T17:07:38.537Z,31.62
2018-08-22T17:10:09.052Z,30.96
2018-08-22T17:12:44.505Z,31.90
2018-08-22T17:15:14.988Z,31.64
2018-08-22T17:17:45.477Z,32.97
2018-08-22T17:20:15.791Z,32.23
2018-08-22T17:22:46.229Z,32.85
2018-08-22T17:25:16.547Z,32.60
2018-08-22T17:27:47.049Z,33.06
2018-08-22T17:30:24.011Z,32.92
2018-08-22T17:32:54.639Z,33.10
2018-08-22T17:35:26.193Z,32.73
2018-08-22T17:38:01.267Z,33.04
2018-08-22T17:40:31.709Z,32.82
2018-08-22T17:43:02.404Z,33.70
2018-08-22T17:45:36.979Z,33.12
2018-08-22T17:48:07.851Z,33.50
2018-08-22T17:50:38.328Z,33.27
2018-08-22T17:53:10.308Z,33.76
2018-08-22T17:55:40.863Z,33.11
2018-08-22T17:58:11.453Z,34.39
2018-08-22T18:00:42.096Z,34.33
2018-08-22T18:03:13.074Z,34.26
2018-08-22T18:05:43.626Z,34.50
2018-08-22T18:08:14.561Z,35.49
2018-08-22T18:10:45.067Z,35.98
2018-08-22T18:13:16.800Z,36.54
2018-08-22T18:15:49.389Z,35.91
2018-08-22T18:18:22.010Z,36.84
2018-08-22T18:20:52.560Z,35.94
2018-08-22T18:23:22.957Z,36.34
2018-08-22T18:25:58.168Z,36.68
2018-08-22T18:28:28.780Z,36.95
2018-08-22T18:30:59.310Z,37.03
2018-08-22T18:33:29.688Z,37.06
2018-08-22T18:36:00.284Z,37.82
2018-08-22T18:38:31.773Z,39.61
2018-08-22T18:41:08.698Z,39.04
2018-08-22T18:43:39.014Z,37.63
2018-08-22T18:46:09.952Z,38.37
2018-08-22T18:48:40.262Z,40.28
2018-08-22T18:51:11.611Z,39.79
2018-08-22T18:53:41.940Z,41.80
2018-08-22T18:56:18.808Z,43.18
2018-08-22T18:58:49.434Z,43.94
2018-08-22T19:01:20.347Z,43.97
2018-08-22T19:03:51.470Z,43.94
2018-08-22T19:06:21.868Z,44.37
2018-08-22T19:08:52.319Z,44.76
2018-08-22T19:11:22.854Z,45.19
2018-08-22T19:13:53.272Z,44.58
2018-08-22T19:16:23.925Z,44.83
2018-08-22T19:18:54.463Z,44.74
2018-08-22T19:21:24.991Z,46.00
2018-08-22T19:24:00.367Z,45.37
2018-08-22T19:26:31.376Z,46.24
2018-08-22T19:29:03.749Z,46.54
2018-08-22T19:31:34.436Z,46.53
2018-08-22T19:34:05.489Z,42.37
2018-08-22T19:36:35.974Z,42.99
2018-08-22T19:39:07.394Z,43.65
2018-08-22T19:41:37.820Z,42.99
2018-08-22T19:44:08.363Z,43.80
2018-08-22T19:46:38.714Z,45.13
2018-08-22T19:49:09.861Z,46.81
2018-08-22T19:51:40.189Z,46.25
2018-08-22T19:54:10.682Z,46.58
2018-08-22T19:56:41.760Z,45.76
2018-08-22T19:59:12.587Z,46.95
2018-08-22T20:01:43.284Z,45.89
2018-08-22T20:04:13.545Z,42.83
2018-08-22T20:06:44.122Z,42.98
2018-08-22T20:09:14.404Z,42.91
2018-08-22T20:11:44.851Z,41.94
2018-08-22T20:14:15.286Z,40.99
2018-08-22T20:16:45.847Z,42.06
2018-08-22T20:19:16.580Z,41.44
2018-08-22T20:21:47.126Z,41.05
2018-08-22T20:24:17.708Z,41.35
2018-08-22T20:26:53.447Z,42.81
2018-08-22T20:29:23.796Z,43.98
2018-08-22T20:31:54.463Z,42.42
2018-08-22T20:34:24.720Z,42.87
2018-08-22T20:36:55.208Z,44.46
2018-08-22T20:39:25.697Z,44.32
2018-08-22T20:41:59.241Z,45.00
2018-08-22T20:44:29.640Z,44.41
2018-08-22T20:47:00.016Z,44.88
2018-08-22T20:49:30.468Z,44.99
2018-08-22T20:52:01.128Z,45.50
2018-08-22T20:54:31.581Z,44.91
2018-08-22T20:57:02.470Z,45.97
2018-08-22T20:59:34.119Z,46.59
2018-08-22T21:02:05.515Z,45.38
2018-08-22T21:04:36.784Z,46.17
2018-08-22T21:07:07.205Z,46.26
2018-08-22T21:09:37.567Z,46.06
2018-08-22T21:12:07.967Z,46.26
2018-08-22T21:14:38.297Z,45.20
2018-08-22T21:17:08.827Z,46.12
2018-08-22T21:19:39.190Z,45.35
2018-08-22T21:22:26.796Z,45.78
2018-08-22T21:24:59.488Z,46.94
2018-08-22T21:27:29.893Z,46.66
2018-08-22T21:30:00.455Z,46.43
2018-08-22T21:32:31.032Z,46.10
2018-08-22T21:35:01.709Z,46.23
2018-08-22T21:37:32.151Z,46.59
2018-08-22T21:40:02.605Z,47.06
2018-08-22T21:42:33.872Z,47.17
2018-08-22T21:45:04.440Z,46.50
2018-08-22T21:47:34.630Z,47.44
2018-08-22T21:50:05.082Z,47.32
2018-08-22T21:52:51.509Z,47.18
2018-08-22T21:55:31.053Z,46.96
2018-08-22T21:58:01.378Z,47.04
2018-08-22T22:00:32.054Z,47.05
2018-08-22T22:03:02.545Z,47.55
2018-08-22T22:05:47.862Z,46.88
2018-08-22T22:08:18.315Z,47.47
2018-08-22T22:10:48.787Z,46.63
2018-08-22T22:13:19.189Z,46.69
2018-08-22T22:15:49.760Z,45.66
2018-08-22T22:18:20.793Z,46.52
2018-08-22T22:20:53.303Z,47.59
2018-08-22T22:23:23.932Z,47.04
2018-08-22T22:25:54.443Z,46.29
2018-08-22T22:28:29.065Z,46.80
2018-08-22T22:30:59.401Z,45.57
2018-08-22T22:33:29.780Z,46.36
2018-08-22T22:36:00.316Z,46.31
2018-08-22T22:38:30.723Z,47.06
2018-08-22T22:41:01.172Z,47.25
2018-08-22T22:43:31.621Z,46.19
2018-08-22T22:46:02.014Z,45.50
2018-08-22T22:48:39.352Z,46.15
2018-08-22T22:51:10.549Z,46.20
2018-08-22T22:53:40.888Z,46.13
2018-08-22T22:56:11.375Z,45.52
2018-08-22T22:58:41.989Z,46.30
2018-08-22T23:01:12.672Z,46.40
2018-08-22T23:03:43.319Z,46.06
2018-08-22T23:06:13.798Z,45.67
2018-08-22T23:08:45.209Z,46.71
2018-08-22T23:11:16.327Z,46.16
2018-08-22T23:13:46.939Z,46.83
2018-08-22T23:16:21.243Z,45.81
2018-08-22T23:18:51.586Z,45.57
2018-08-22T23:21:22.268Z,46.19
2018-08-22T23:23:52.656Z,46.02
2018-08-22T23:26:23.000Z,46.68
2018-08-22T23:28:53.506Z,46.67
2018-08-22T23:31:23.981Z,46.57
2018-08-22T23:33:54.466Z,46.88
2018-08-22T23:36:25.455Z,46.98
2018-08-22T23:38:55.846Z,46.54
2018-08-22T23:41:26.103Z,46.70
2018-08-22T23:43:56.563Z,46.73
2018-08-22T23:46:26.972Z,46.97
2018-08-22T23:48:59.300Z,46.57
2018-08-22T23:51:29.865Z,45.65
2018-08-22T23:54:01.648Z,45.85
2018-08-22T23:56:32.584Z,46.02
2018-08-22T23:59:02.936Z,46.70
